Time;durP1;ratioP1;P1;durP2;ratioP2;P2;SDS_P1;SDS_P2;PMS_P1;PMS_P2;Temp;Humidity;BMP_temperature;BMP_pressure;BME280_temperature;BME280_humidity;BME280_pressure;Samples;Min_cycle;Max_cycle;Signal;HPM_P1;HPM_P2
2021/12/19 00:02:39;;;;;;;0.20;0.20;;;;;;;19.75;45.02;103163.50;5106531;28;20051;-36
2021/12/19 00:10:33;;;;;;;0.20;0.20;;;;;;;19.75;44.70;103157.13;5094986;28;20043;-36
2021/12/19 00:12:59;;;;;;;0.20;0.20;;;;;;;19.75;44.95;103146.91;5109690;28;20699;-36
2021/12/19 00:15:25;;;;;;;0.20;0.20;;;;;;;19.76;44.83;103147.75;5107185;28;20058;-36
2021/12/19 00:17:51;;;;;;;0.20;0.20;;;;;;;19.75;44.99;103144.16;5091492;28;20522;-36
2021/12/19 00:20:17;;;;;;;0.20;0.20;;;;;;;19.75;44.91;103141.38;5092729;28;20044;-35
2021/12/19 00:23:03;;;;;;;0.20;0.20;;;;;;;19.75;45.21;103144.16;5094237;28;20051;-36
2021/12/19 00:25:29;;;;;;;0.20;0.20;;;;;;;19.75;45.00;103141.38;5110118;28;20439;-36
2021/12/19 00:27:54;;;;;;;0.20;0.20;;;;;;;19.75;44.75;103132.25;5108123;28;20043;-36
2021/12/19 00:30:20;;;;;;;0.20;0.20;;;;;;;19.76;44.90;103125.63;5109297;28;20040;-36
2021/12/19 00:32:46;;;;;;;0.20;0.20;;;;;;;19.75;45.10;103122.03;5111369;28;20054;-37
2021/12/19 00:35:11;;;;;;;0.20;0.20;;;;;;;19.75;44.87;103133.09;5104372;28;20071;-36
2021/12/19 00:37:37;;;;;;;0.20;0.20;;;;;;;19.75;44.74;103132.25;5113127;28;20195;-36
2021/12/19 00:40:04;;;;;;;0.20;0.20;;;;;;;19.74;44.70;103131.41;5111186;28;20044;-37
2021/12/19 00:42:34;;;;;;;0.20;0.20;;;;;;;19.75;44.81;103124.78;5089374;28;20051;-36
2021/12/19 00:45:05;;;;;;;0.20;0.20;;;;;;;19.75;44.90;103124.78;5073225;28;20459;-36
2021/12/19 00:47:30;;;;;;;0.20;0.20;;;;;;;19.75;44.99;103122.03;5111308;28;20050;-37
2021/12/19 00:49:56;;;;;;;0.20;0.20;;;;;;;19.75;44.76;103129.47;5093915;28;20035;-37
2021/12/19 00:52:40;;;;;;;0.20;0.20;;;;;;;19.76;45.07;103126.47;5108242;28;20048;-36
2021/12/19 00:55:06;;;;;;;0.20;0.20;;;;;;;19.75;44.74;103124.78;5105017;28;20075;-36
2021/12/19 00:57:32;;;;;;;0.20;0.20;;;;;;;19.75;44.81;103123.94;5110864;28;20099;-36
2021/12/19 00:59:58;;;;;;;0.20;0.20;;;;;;;19.74;45.05;103117.59;5090794;28;20043;-35
2021/12/19 01:02:24;;;;;;;0.20;0.20;;;;;;;19.74;44.76;103120.34;5111008;28;20050;-35
2021/12/19 01:04:49;;;;;;;0.20;0.20;;;;;;;19.76;44.72;103114.56;5088243;28;21423;-37
2021/12/19 01:07:15;;;;;;;0.20;0.20;;;;;;;19.75;44.82;103102.66;5109798;28;20541;-36
2021/12/19 01:09:41;;;;;;;0.20;0.20;;;;;;;19.74;44.88;103117.59;5109643;28;20043;-36
2021/12/19 01:12:10;;;;;;;0.20;0.20;;;;;;;19.75;44.98;103104.59;5109435;28;20055;-38
2021/12/19 01:14:37;;;;;;;0.20;0.20;;;;;;;19.73;45.08;103099.31;5110795;28;20462;-37
2021/12/19 01:17:04;;;;;;;0.20;0.20;;;;;;;19.76;44.88;103103.50;5107747;28;20700;-38
2021/12/19 01:19:29;;;;;;;0.20;0.20;;;;;;;19.75;44.70;103099.06;5108708;28;20577;-37
2021/12/19 01:21:55;;;;;;;0.20;0.20;;;;;;;19.76;44.85;103097.97;5111925;28;20077;-37
2021/12/19 01:24:20;;;;;;;0.20;0.20;;;;;;;19.75;45.15;103096.31;5104512;28;20401;-39
2021/12/19 01:26:46;;;;;;;0.20;0.20;;;;;;;19.74;44.85;103091.84;5108528;28;20411;-38
2021/12/19 01:29:13;;;;;;;0.20;0.20;;;;;;;19.75;44.75;103090.78;5108237;28;20089;-36
2021/12/19 01:31:39;;;;;;;0.20;0.20;;;;;;;19.74;44.87;103092.69;5087383;28;20524;-38
2021/12/19 01:34:05;;;;;;;0.20;0.20;;;;;;;19.74;44.75;103097.38;5090134;28;20067;-37
2021/12/19 01:36:30;;;;;;;0.20;0.20;;;;;;;19.74;44.75;103092.69;5106063;28;20379;-36
2021/12/19 01:38:56;;;;;;;0.20;0.20;;;;;;;19.75;44.97;103094.38;5107081;28;20054;-37
2021/12/19 01:41:21;;;;;;;0.20;0.20;;;;;;;19.74;44.77;103091.84;5091097;28;20126;-37
2021/12/19 01:43:47;;;;;;;0.20;0.20;;;;;;;19.75;44.82;103088.84;5089402;28;20074;-36
2021/12/19 01:46:13;;;;;;;0.20;0.20;;;;;;;19.75;44.91;103088.00;5108034;28;20040;-37
2021/12/19 01:48:39;;;;;;;0.20;0.20;;;;;;;19.75;44.91;103083.31;5115338;28;20066;-37
2021/12/19 01:51:05;;;;;;;0.20;0.20;;;;;;;19.74;44.71;103078.88;5088460;28;20097;-39
2021/12/19 01:53:30;;;;;;;0.20;0.20;;;;;;;19.74;45.15;103078.88;5108109;28;20406;-37
2021/12/19 01:55:56;;;;;;;0.20;0.20;;;;;;;19.75;44.96;103076.94;5104835;28;20054;-37
2021/12/19 01:58:22;;;;;;;0.20;0.20;;;;;;;19.74;45.00;103072.50;5109200;28;20050;-36
2021/12/19 02:00:51;;;;;;;0.20;0.20;;;;;;;19.75;44.74;103072.25;5088658;28;20051;-37
2021/12/19 02:03:17;;;;;;;;;;;;;;;19.75;44.85;103071.41;5108538;28;20044;-37
2021/12/19 02:05:43;;;;;;;0.20;0.20;;;;;;;19.74;44.92;103069.75;5090285;28;20423;-38
2021/12/19 02:08:10;;;;;;;0.20;0.20;;;;;;;19.74;44.99;103076.09;5090566;28;20138;-37
2021/12/19 02:10:36;;;;;;;0.20;0.20;;;;;;;19.75;44.92;103074.19;5109462;28;20051;-38
2021/12/19 02:13:04;;;;;;;0.20;0.20;;;;;;;19.73;45.15;103068.91;5092067;28;20525;-37
2021/12/19 02:15:31;;;;;;;0.20;0.20;;;;;;;19.74;44.91;103067.81;5074398;28;20062;-37
2021/12/19 02:18:00;;;;;;;0.20;0.20;;;;;;;19.73;44.73;103073.56;5109952;27;20485;-37
2021/12/19 02:20:32;;;;;;;0.20;0.20;;;;;;;19.74;45.06;103065.06;5087363;28;20047;-37
2021/12/19 02:22:58;;;;;;;0.20;0.20;;;;;;;19.73;44.90;103071.66;5105318;28;20058;-39
2021/12/19 02:25:23;;;;;;;0.20;0.20;;;;;;;19.73;44.93;103066.13;5089518;28;20516;-37
2021/12/19 02:27:49;;;;;;;0.20;0.20;;;;;;;19.74;45.05;103065.06;5111888;28;20044;-38
2021/12/19 02:30:15;;;;;;;0.20;0.20;;;;;;;19.73;44.77;103066.13;5109950;28;20051;-37
2021/12/19 02:32:41;;;;;;;0.20;0.20;;;;;;;19.74;44.93;103059.53;5110952;28;20043;-37
2021/12/19 02:35:11;;;;;;;0.20;0.20;;;;;;;19.73;44.90;103062.50;5114493;28;20150;-38
2021/12/19 02:40:32;;;;;;;0.20;0.20;;;;;;;19.74;44.96;103051.22;5159971;27;20541;-36
2021/12/19 02:48:31;;;;;;;0.20;0.20;;;;;;;19.73;44.99;103041.25;5147291;27;19984;-36
2021/12/19 02:50:58;;;;;;;0.20;0.20;;;;;;;19.74;44.76;103039.34;5162276;27;20054;-36
2021/12/19 02:53:30;;;;;;;0.20;0.20;;;;;;;19.73;44.92;103041.25;5141713;27;20046;-36
2021/12/19 02:55:56;;;;;;;0.20;0.20;;;;;;;19.74;44.89;103036.56;5144383;27;20052;-36
2021/12/19 02:58:21;;;;;;;0.20;0.20;;;;;;;19.73;45.11;103038.50;5161784;27;20129;-36
2021/12/19 03:00:48;;;;;;;0.20;0.20;;;;;;;19.73;44.88;103024.66;5162587;27;20047;-38
2021/12/19 03:03:14;;;;;;;0.20;0.20;;;;;;;19.74;44.65;103036.56;5142690;27;20069;-36
2021/12/19 03:05:40;;;;;;;0.20;0.20;;;;;;;19.75;44.60;103032.72;5159089;27;20388;-36
2021/12/19 03:08:08;;;;;;;0.20;0.20;;;;;;;19.73;44.89;103026.56;5162515;27;20057;-36
2021/12/19 03:13:33;;;;;;;0.20;0.20;;;;;;;19.73;44.79;103027.44;5127541;27;20139;-36
2021/12/19 03:18:44;;;;;;;0.20;0.20;;;;;;;19.72;45.17;103017.44;5128912;27;20495;-36
2021/12/19 03:21:13;;;;;;;0.20;0.20;;;;;;;19.72;45.07;103017.44;5159762;27;20046;-36
2021/12/19 03:23:39;;;;;;;0.20;0.20;;;;;;;19.73;44.92;103013.59;5161428;27;20133;-36
2021/12/19 03:26:05;;;;;;;0.20;0.20;;;;;;;19.74;44.74;103006.16;5142988;27;20493;-36
2021/12/19 03:28:31;;;;;;;0.20;0.20;;;;;;;19.73;44.93;103012.75;5161337;27;20046;-37
2021/12/19 03:30:56;;;;;;;0.20;0.20;;;;;;;19.73;45.02;103004.44;5141594;27;20046;-37
2021/12/19 03:33:22;;;;;;;0.20;0.20;;;;;;;19.73;45.09;103005.31;5157399;27;20046;-36
2021/12/19 03:35:48;;;;;;;0.20;0.20;;;;;;;19.72;44.73;103003.59;5159328;27;20061;-37
2021/12/19 03:38:15;;;;;;;0.20;0.20;;;;;;;19.72;44.78;103000.00;5156461;27;20422;-36
2021/12/19 03:40:45;;;;;;;0.20;0.20;;;;;;;19.74;45.08;102995.94;5133171;27;20035;-36
2021/12/19 03:43:14;;;;;;;0.20;0.20;;;;;;;19.74;44.97;103000.63;5159015;27;20402;-37
2021/12/19 03:45:41;;;;;;;0.20;0.20;;;;;;;19.74;44.81;103003.38;5140779;27;20039;-37
2021/12/19 03:48:11;;;;;;;0.20;0.20;;;;;;;19.73;45.08;102994.25;5158908;27;20134;-35
2021/12/19 03:50:37;;;;;;;0.20;0.20;;;;;;;19.72;44.99;102989.78;5146719;27;20138;-36
2021/12/19 03:53:03;;;;;;;0.20;0.20;;;;;;;19.74;44.88;102989.56;5140372;27;20047;-36
2021/12/19 03:55:29;;;;;;;0.20;0.20;;;;;;;19.73;44.93;102987.84;5144550;27;20057;-37
2021/12/19 03:57:57;;;;;;;0.20;0.20;;;;;;;19.74;44.96;102986.81;5143918;27;20046;-37
2021/12/19 04:00:25;;;;;;;0.20;0.20;;;;;;;19.73;45.14;102983.19;5138648;27;20418;-35
2021/12/19 04:02:53;;;;;;;0.20;0.20;;;;;;;19.72;44.73;102989.78;5144757;27;20039;-36
2021/12/19 04:05:20;;;;;;;0.20;0.20;;;;;;;19.73;45.06;102982.31;5144962;27;20043;-37
2021/12/19 04:07:45;;;;;;;0.20;0.20;;;;;;;19.73;45.24;102985.97;5142738;27;20038;-38
2021/12/19 04:10:11;;;;;;;0.20;0.20;;;;;;;19.73;45.07;102971.28;5147021;27;20385;-37
2021/12/19 04:12:37;;;;;;;0.20;0.20;;;;;;;19.73;44.99;102965.75;5128190;27;20039;-36
2021/12/19 04:15:05;;;;;;;0.20;0.20;;;;;;;19.72;45.04;102964.91;5146273;27;20051;-37
2021/12/19 04:17:31;;;;;;;0.10;0.10;;;;;;;19.73;44.94;102951.91;5108565;28;20039;-36
2021/12/19 04:19:56;;;;;;;0.20;0.20;;;;;;;19.73;44.75;102949.16;5105908;28;20071;-39
2021/12/19 04:22:22;;;;;;;0.20;0.20;;;;;;;19.73;44.86;102949.16;5124465;28;20043;-37
2021/12/19 04:24:48;;;;;;;0.20;0.20;;;;;;;19.72;45.08;102936.41;5126810;28;20217;-36
2021/12/19 04:27:13;;;;;;;0.20;0.20;;;;;;;19.73;44.83;102935.34;5106048;28;20047;-37
2021/12/19 04:29:39;;;;;;;0.20;0.20;;;;;;;19.72;44.95;102937.25;5124398;28;20417;-36
2021/12/19 04:32:07;;;;;;;0.20;0.20;;;;;;;19.73;45.08;102930.69;5124696;28;20670;-39
2021/12/19 04:34:33;;;;;;;0.20;0.20;;;;;;;19.72;44.96;102920.66;5122623;28;20043;-37
2021/12/19 04:37:07;;;;;;;0.20;0.20;;;;;;;19.73;44.80;102930.69;5106525;28;20112;-37
2021/12/19 04:39:51;;;;;;;0.20;0.20;;;;;;;19.73;44.91;102929.81;5123935;28;20043;-37
2021/12/19 04:43:16;;;;;;;0.20;0.20;;;;;;;19.72;44.86;102928.97;5124828;28;20157;-37
2021/12/19 04:53:22;;;;;;;0.20;0.20;;;;;;;19.72;44.79;102917.06;5135725;27;20157;-37
2021/12/19 04:56:14;;;;;;;0.20;0.20;;;;;;;19.71;44.88;102916.22;5138774;27;20658;-36
2021/12/19 04:58:52;;;;;;;0.20;0.20;;;;;;;19.72;45.04;102925.34;5141173;27;20054;-37
2021/12/19 05:01:39;;;;;;;0.20;0.20;;;;;;;19.71;44.95;102919.00;5157108;27;20134;-36
2021/12/19 05:04:10;;;;;;;0.20;0.20;;;;;;;19.72;44.99;102920.66;5138496;27;20091;-36
2021/12/19 05:14:53;;;;;;;0.20;0.20;;;;;;;19.72;45.04;102919.84;5150575;27;20225;-37
2021/12/19 05:17:23;;;;;;;0.20;0.20;;;;;;;19.71;44.97;102921.75;5164538;27;20480;-38
2021/12/19 05:20:05;;;;;;;0.20;0.20;;;;;;;19.71;44.96;102919.00;5164835;27;20382;-36
2021/12/19 05:22:36;;;;;;;0.20;0.20;;;;;;;19.72;45.01;102917.06;5165459;27;20155;-37
2021/12/19 05:25:14;;;;;;;0.20;0.20;;;;;;;19.71;44.86;102913.47;5144449;27;20050;-36
2021/12/19 05:27:43;;;;;;;0.20;0.20;;;;;;;19.73;45.07;102911.31;5147096;27;20503;-36
2021/12/19 05:30:09;;;;;;;0.20;0.20;;;;;;;19.73;44.84;102913.22;5166226;27;20405;-36
2021/12/19 05:32:35;;;;;;;0.20;0.20;;;;;;;19.72;44.66;102908.78;5164704;27;20441;-36
2021/12/19 05:35:01;;;;;;;0.20;0.20;;;;;;;19.72;44.94;102915.13;5164022;27;20050;-35
2021/12/19 05:45:43;;;;;;;0.20;0.20;;;;;;;19.71;44.86;102905.16;5149691;27;20473;-35
2021/12/19 05:48:08;;;;;;;0.20;0.20;;;;;;;19.71;44.71;102896.88;5164317;27;20046;-35
2021/12/19 05:50:34;;;;;;;0.28;0.28;;;;;;;19.72;44.92;102906.84;5164131;27;20466;-34
2021/12/19 05:53:00;;;;;;;0.20;0.20;;;;;;;19.72;44.83;102906.00;5161931;27;20054;-35
2021/12/19 05:55:25;;;;;;;0.20;0.20;;;;;;;19.72;44.92;102895.78;5164270;27;20055;-35
2021/12/19 05:57:51;;;;;;;0.20;0.20;;;;;;;19.72;44.86;102895.78;5164813;27;20057;-35
2021/12/19 06:00:18;;;;;;;0.20;0.20;;;;;;;19.72;45.05;102898.56;5165103;27;20046;-35
2021/12/19 06:02:44;;;;;;;0.20;0.20;;;;;;;19.72;44.92;102897.72;5164622;27;20066;-35
2021/12/19 06:05:12;;;;;;;0.20;0.20;;;;;;;19.73;44.81;102891.97;5144916;27;20051;-36
2021/12/19 06:07:39;;;;;;;0.20;0.20;;;;;;;19.72;44.91;102895.78;5146650;27;20346;-35
2021/12/19 06:10:05;;;;;;;0.20;0.20;;;;;;;19.72;45.03;102901.31;5145898;27;20038;-35
2021/12/19 06:12:32;;;;;;;0.20;0.20;;;;;;;19.72;44.86;102892.19;5165845;27;20046;-36
2021/12/19 06:14:58;;;;;;;0.20;0.20;;;;;;;19.72;45.11;102892.19;5129104;27;20043;-35
2021/12/19 06:17:24;;;;;;;0.20;0.20;;;;;;;19.72;45.09;102886.66;5161733;27;20043;-36
2021/12/19 06:19:49;;;;;;;0.20;0.20;;;;;;;19.71;44.83;102882.22;5126646;27;20050;-35
2021/12/19 06:22:15;;;;;;;0.20;0.20;;;;;;;19.72;44.81;102875.59;5137420;27;20050;-35
2021/12/19 06:24:40;;;;;;;0.20;0.20;;;;;;;19.71;45.03;102883.06;5117048;27;20474;-35
2021/12/19 06:27:06;;;;;;;0.20;0.20;;;;;;;19.71;44.86;102880.28;5138444;27;20043;-35
2021/12/19 06:29:32;;;;;;;0.20;0.20;;;;;;;19.71;44.70;102883.06;5141245;27;20043;-35
2021/12/19 06:31:59;;;;;;;0.20;0.20;;;;;;;19.71;44.83;102884.97;5140339;27;20039;-35
2021/12/19 06:34:24;;;;;;;0.20;0.20;;;;;;;19.71;44.57;102869.22;5138354;27;20431;-35
2021/12/19 06:36:52;;;;;;;0.20;0.20;;;;;;;19.70;44.89;102875.00;5138216;27;20047;-35
2021/12/19 06:39:19;;;;;;;0.20;0.20;;;;;;;19.71;44.66;102883.06;5139318;27;20043;-35
2021/12/19 06:41:45;;;;;;;0.20;0.20;;;;;;;19.70;45.08;102881.38;5139292;27;20039;-35
2021/12/19 06:44:11;;;;;;;0.20;0.20;;;;;;;19.71;45.02;102887.75;5111124;27;20186;-36
2021/12/19 06:46:37;;;;;;;0.20;0.20;;;;;;;19.70;44.85;102883.31;5119785;27;20281;-35
2021/12/19 06:49:03;;;;;;;0.20;0.20;;;;;;;19.71;44.50;102880.28;5121810;27;20181;-35
2021/12/19 06:51:31;;;;;;;0.20;0.20;;;;;;;19.71;45.09;102880.28;5118514;27;20039;-36
2021/12/19 06:53:56;;;;;;;0.20;0.20;;;;;;;19.71;44.83;102885.81;5133239;27;20035;-34
2021/12/19 06:56:23;;;;;;;0.28;0.28;;;;;;;19.72;44.58;102883.91;5138198;27;20100;-35
2021/12/19 06:58:48;;;;;;;0.20;0.20;;;;;;;19.71;44.61;102876.69;5135667;27;20398;-35
2021/12/19 07:01:14;;;;;;;0.20;0.20;;;;;;;19.71;44.83;102883.06;5137322;27;20054;-36
2021/12/19 07:03:40;;;;;;;0.20;0.20;;;;;;;19.72;44.66;102878.38;5141438;27;20039;-35
2021/12/19 07:06:06;;;;;;;0.20;0.20;;;;;;;19.71;44.83;102879.44;5138584;27;20477;-35
2021/12/19 07:08:31;;;;;;;0.13;0.13;;;;;;;19.71;45.05;102877.53;5117204;27;20051;-35
2021/12/19 07:10:57;;;;;;;0.20;0.20;;;;;;;19.71;45.00;102871.16;5136258;27;20111;-36
2021/12/19 07:13:23;;;;;;;0.20;0.20;;;;;;;19.70;45.00;102864.78;5119044;27;20575;-36
2021/12/19 07:15:51;;;;;;;0.20;0.20;;;;;;;19.70;44.67;102866.72;5136324;27;20042;-35
2021/12/19 07:18:17;;;;;;;0.20;0.20;;;;;;;19.70;45.01;102867.56;5138643;27;20043;-36
2021/12/19 07:20:43;;;;;;;0.20;0.20;;;;;;;19.72;44.71;102875.59;5137787;27;20047;-35
2021/12/19 07:23:11;;;;;;;0.20;0.20;;;;;;;19.71;44.67;102877.53;5132755;27;20462;-35
2021/12/19 07:25:37;;;;;;;0.20;0.20;;;;;;;19.71;44.66;102874.75;5136985;27;20095;-36
2021/12/19 07:28:03;;;;;;;0.20;0.20;;;;;;;19.72;44.71;102872.84;5135381;27;20039;-35
2021/12/19 07:30:30;;;;;;;0.20;0.20;;;;;;;19.69;45.05;102874.16;5139908;27;20035;-35
2021/12/19 07:32:57;;;;;;;0.20;0.20;;;;;;;19.70;44.94;102866.72;5120903;27;20047;-35
2021/12/19 07:35:23;;;;;;;0.20;0.20;;;;;;;19.71;44.65;102868.41;5140010;27;20477;-35
2021/12/19 07:37:50;;;;;;;0.20;0.20;;;;;;;19.70;44.92;102863.94;5119003;27;20085;-35
2021/12/19 07:40:19;;;;;;;0.20;0.20;;;;;;;19.70;44.92;102853.72;5122119;27;20396;-36
2021/12/19 07:42:44;;;;;;;0.20;0.20;;;;;;;19.69;44.81;102851.19;5106212;27;20043;-36
2021/12/19 07:45:12;;;;;;;0.20;0.20;;;;;;;19.70;44.75;102858.44;5115829;27;20057;-35
2021/12/19 07:47:39;;;;;;;0.20;0.20;;;;;;;19.68;44.86;102847.59;5103983;27;20051;-36
2021/12/19 07:50:07;;;;;;;0.20;0.20;;;;;;;19.68;44.77;102839.28;5136733;27;20053;-36
2021/12/19 07:52:32;;;;;;;0.10;0.10;;;;;;;19.71;44.80;102847.13;5102657;27;20043;-35
2021/12/19 07:54:58;;;;;;;0.20;0.20;;;;;;;19.69;44.87;102843.75;5133507;27;20035;-36
2021/12/19 07:57:24;;;;;;;0.20;0.20;;;;;;;19.70;44.70;102847.38;5136382;27;20142;-36
2021/12/19 07:59:50;;;;;;;0.20;0.20;;;;;;;19.71;44.86;102849.03;5138216;27;20489;-36
2021/12/19 08:02:15;;;;;;;0.20;0.20;;;;;;;19.70;44.89;102845.44;5117885;27;20048;-36
2021/12/19 08:04:41;;;;;;;0.20;0.20;;;;;;;19.69;44.78;102841.00;5136855;27;20046;-36
2021/12/19 08:07:08;;;;;;;0.20;0.20;;;;;;;19.70;44.88;102844.59;5137642;27;20065;-35
2021/12/19 08:09:38;;;;;;;0.20;0.20;;;;;;;19.70;44.87;102847.38;5135474;27;20034;-36
2021/12/19 08:12:04;;;;;;;0.20;0.20;;;;;;;19.69;44.84;102838.25;5136737;27;20484;-36
2021/12/19 08:14:30;;;;;;;0.20;0.20;;;;;;;19.69;45.10;102835.47;5139196;27;20043;-35
2021/12/19 08:16:56;;;;;;;0.20;0.20;;;;;;;19.69;45.00;102837.38;5136339;27;20038;-36
2021/12/19 08:19:21;;;;;;;0.20;0.20;;;;;;;19.69;44.72;102843.75;5134717;27;20051;-36
2021/12/19 08:21:47;;;;;;;0.20;0.20;;;;;;;19.70;44.57;102836.31;5119669;27;20050;-35
2021/12/19 08:24:14;;;;;;;0.20;0.20;;;;;;;19.69;44.94;102832.72;5135779;27;20149;-36
2021/12/19 08:26:41;;;;;;;0.20;0.20;;;;;;;19.69;44.93;102835.47;5119939;27;20103;-35
2021/12/19 08:29:09;;;;;;;0.20;0.20;;;;;;;19.69;44.97;102834.59;5137152;27;20054;-35
2021/12/19 08:31:34;;;;;;;0.20;0.20;;;;;;;19.68;45.00;102830.16;5100958;27;20537;-35
2021/12/19 08:34:00;;;;;;;0.20;0.20;;;;;;;19.69;44.96;102834.59;5133643;27;20045;-36
2021/12/19 08:36:27;;;;;;;0.20;0.20;;;;;;;19.69;45.01;102835.47;5135537;27;20042;-34
2021/12/19 08:38:53;;;;;;;0.20;0.20;;;;;;;19.70;44.84;102839.91;5135908;27;20200;-35
2021/12/19 08:41:19;;;;;;;0.20;0.20;;;;;;;19.70;44.67;102828.03;5115583;27;20043;-35
2021/12/19 08:43:44;;;;;;;0.20;0.20;;;;;;;19.69;44.80;102827.19;5136463;27;20046;-35
2021/12/19 08:46:11;;;;;;;0.20;0.20;;;;;;;19.70;44.60;102816.97;5135327;27;20047;-34
2021/12/19 08:48:37;;;;;;;0.20;0.20;;;;;;;19.69;44.86;102818.88;5138210;27;20058;-35
2021/12/19 08:51:04;;;;;;;0.20;0.20;;;;;;;19.69;44.86;102818.88;5117405;27;20066;-36
2021/12/19 08:53:30;;;;;;;0.20;0.20;;;;;;;19.68;44.67;102819.09;5114753;27;20053;-35
2021/12/19 08:55:56;;;;;;;0.20;0.20;;;;;;;19.67;44.91;102823.78;5119713;27;20035;-34
2021/12/19 08:58:21;;;;;;;0.20;0.20;;;;;;;19.68;44.99;102816.34;5116487;27;20221;-38
2021/12/19 09:00:47;;;;;;;0.20;0.20;;;;;;;19.68;45.03;102819.94;5138300;27;20311;-35
2021/12/19 09:03:13;;;;;;;0.20;0.20;;;;;;;19.69;44.63;102815.25;5117709;27;20071;-35
2021/12/19 09:05:39;;;;;;;0.20;0.20;;;;;;;19.68;44.97;102814.41;5115207;27;20043;-36
2021/12/19 09:08:05;;;;;;;0.20;0.20;;;;;;;19.67;44.83;102811.91;5135442;27;20073;-35
2021/12/19 09:10:31;;;;;;;0.20;0.20;;;;;;;19.68;45.10;102808.88;5136953;27;20043;-35
2021/12/19 09:12:57;;;;;;;0.20;0.20;;;;;;;19.68;44.75;102808.88;5114323;27;20049;-36
2021/12/19 09:15:23;;;;;;;0.20;0.20;;;;;;;19.68;44.80;102803.34;5103879;27;20065;-35
2021/12/19 09:17:49;;;;;;;0.20;0.20;;;;;;;19.69;44.87;102807.84;5137625;27;20046;-35
2021/12/19 09:20:16;;;;;;;0.20;0.20;;;;;;;19.68;44.96;102813.56;5132726;27;20064;-35
2021/12/19 09:22:42;;;;;;;0.20;0.20;;;;;;;19.68;44.77;102805.28;5104952;27;20043;-35
2021/12/19 09:25:17;;;;;;;0.20;0.20;;;;;;;19.69;45.01;102816.13;5137695;27;20039;-36
2021/12/19 09:27:42;;;;;;;0.20;0.20;;;;;;;19.69;44.93;102813.34;5135878;27;20047;-35
2021/12/19 09:30:08;;;;;;;0.20;0.20;;;;;;;19.69;45.01;102816.13;5135244;27;20062;-36
2021/12/19 09:32:34;;;;;;;0.20;0.20;;;;;;;19.67;44.98;102815.50;5138645;27;20058;-35
2021/12/19 09:35:00;;;;;;;0.20;0.20;;;;;;;19.67;44.74;102812.75;5134260;27;20061;-35
2021/12/19 09:37:27;;;;;;;0.20;0.20;;;;;;;19.68;44.62;102811.66;5136083;27;20053;-35
2021/12/19 09:39:52;;;;;;;0.20;0.20;;;;;;;19.67;44.98;102804.44;5134381;27;20043;-36
2021/12/19 09:42:21;;;;;;;0.20;0.20;;;;;;;19.67;44.67;102804.44;5136932;27;20357;-35
2021/12/19 09:44:47;;;;;;;0.20;0.20;;;;;;;19.68;44.65;102808.06;5132782;27;20100;-35
2021/12/19 09:47:12;;;;;;;0.20;0.20;;;;;;;19.68;44.98;102802.53;5135444;27;20047;-35
2021/12/19 09:49:38;;;;;;;0.20;0.20;;;;;;;19.68;44.67;102808.06;5134151;27;20043;-35
2021/12/19 09:52:07;;;;;;;0.20;0.20;;;;;;;19.68;44.70;102808.06;5133522;27;20035;-34
2021/12/19 09:54:35;;;;;;;0.20;0.20;;;;;;;19.69;44.60;102804.19;5135495;27;20046;-36
2021/12/19 09:57:01;;;;;;;0.20;0.20;;;;;;;19.68;44.62;102805.28;5136645;27;20043;-35
2021/12/19 09:59:27;;;;;;;0.20;0.20;;;;;;;19.68;44.43;102800.59;5140014;27;20095;-34
2021/12/19 10:01:53;;;;;;;0.20;0.20;;;;;;;19.67;44.61;102798.91;5138719;27;20128;-35
2021/12/19 10:04:40;;;;;;;0.20;0.20;;;;;;;19.68;44.77;102788.69;5101261;27;20046;-36
2021/12/19 10:07:14;;;;;;;0.10;0.10;;;;;;;19.67;44.71;102787.84;5103611;27;20498;-36
2021/12/19 10:10:02;;;;;;;0.20;0.20;;;;;;;19.67;44.86;102787.84;5119638;27;20042;-35
2021/12/19 10:15:16;;;;;;;0.20;0.20;;;;;;;19.67;44.90;102779.56;5162448;27;20205;-34
2021/12/19 10:17:42;;;;;;;0.20;0.20;;;;;;;19.67;45.05;102765.75;5120508;27;20047;-36
2021/12/19 10:20:10;;;;;;;0.20;0.20;;;;;;;19.68;44.80;102766.59;5137049;27;20046;-36
2021/12/19 10:22:40;;;;;;;0.20;0.20;;;;;;;19.67;44.89;102762.16;5138294;27;20398;-36
2021/12/19 10:25:17;;;;;;;0.20;0.20;;;;;;;19.68;44.72;102770.19;5138868;27;20049;-38
2021/12/19 10:27:53;;;;;;;0.20;0.20;;;;;;;19.67;44.62;102765.75;5121574;27;20126;-36
2021/12/19 10:30:27;;;;;;;0.20;0.20;;;;;;;19.67;44.68;102757.44;5135603;27;20046;-35
2021/12/19 10:32:54;;;;;;;0.20;0.20;;;;;;;19.67;44.87;102753.84;5140357;27;20053;-35
2021/12/19 10:35:27;;;;;;;0.20;0.20;;;;;;;19.66;44.77;102753.00;5137139;27;20050;-34
2021/12/19 10:37:53;;;;;;;0.20;0.20;;;;;;;19.68;44.93;102756.38;5118640;27;20106;-38
2021/12/19 10:40:19;;;;;;;0.20;0.20;;;;;;;19.67;44.63;102749.16;5138134;27;20047;-37
2021/12/19 10:42:54;;;;;;;0.20;0.20;;;;;;;19.67;44.71;102740.88;5119974;27;20046;-38
2021/12/19 10:45:35;;;;;;;0.20;0.20;;;;;;;19.68;44.69;102742.53;5118782;27;20063;-37
2021/12/19 10:48:18;;;;;;;0.20;0.20;;;;;;;19.67;44.68;102732.59;5138721;27;20073;-36
2021/12/19 10:51:09;;;;;;;0.20;0.20;;;;;;;19.66;44.77;102730.91;5120148;27;20043;-36
2021/12/19 10:53:52;;;;;;;0.20;0.20;;;;;;;19.67;44.72;102727.06;5108767;27;20049;-36
2021/12/19 10:56:21;;;;;;;0.20;0.20;;;;;;;19.67;44.99;102718.75;5097631;27;20043;-36
2021/12/19 10:58:53;;;;;;;0.20;0.20;;;;;;;19.68;44.69;102716.84;5122174;27;20036;-36
2021/12/19 11:01:22;;;;;;;0.20;0.20;;;;;;;19.66;44.65;102713.47;5120866;27;20669;-36
2021/12/19 11:03:56;;;;;;;0.20;0.20;;;;;;;19.66;44.60;102710.72;5116927;27;20051;-36
2021/12/19 11:06:33;;;;;;;0.20;0.20;;;;;;;19.66;44.74;102710.72;5136725;27;20183;-37
2021/12/19 11:09:03;;;;;;;0.20;0.20;;;;;;;19.66;44.63;102707.97;5112092;27;20042;-35
2021/12/19 11:14:11;;;;;;;0.20;0.20;;;;;;;19.66;44.64;102694.97;5178042;27;20526;-36
2021/12/19 11:16:36;;;;;;;0.20;0.20;;;;;;;19.66;44.77;102694.13;5162728;27;20061;-36
2021/12/19 11:19:02;;;;;;;0.20;0.20;;;;;;;19.66;44.90;102683.91;5161337;27;20461;-36
2021/12/19 11:21:33;;;;;;;0.20;0.20;;;;;;;19.66;44.82;102683.91;5146579;27;20489;-36
2021/12/19 11:24:02;;;;;;;0.20;0.20;;;;;;;19.66;45.03;102683.91;5142837;27;20043;-37
2021/12/19 11:26:28;;;;;;;0.20;0.20;;;;;;;19.66;44.83;102683.06;5143190;27;20098;-37
2021/12/19 11:28:55;;;;;;;0.20;0.20;;;;;;;19.65;45.01;102676.72;5163729;27;20042;-36
2021/12/19 11:31:26;;;;;;;0.20;0.20;;;;;;;19.67;44.91;102676.47;5145760;27;20053;-36
2021/12/19 11:34:16;;;;;;;0.20;0.20;;;;;;;19.65;44.72;102664.81;5164807;27;20050;-36
2021/12/19 11:36:52;;;;;;;0.20;0.20;;;;;;;19.66;44.86;102663.72;5149667;27;20039;-37
2021/12/19 11:39:18;;;;;;;0.20;0.20;;;;;;;19.66;44.95;102659.03;5161883;27;20050;-37
2021/12/19 11:44:55;;;;;;;0.20;0.20;;;;;;;19.66;44.85;102659.03;5161608;27;20222;-36
2021/12/19 11:47:39;;;;;;;0.20;0.20;;;;;;;19.66;44.72;102658.19;5142686;27;20133;-37
2021/12/19 11:50:11;;;;;;;0.20;0.20;;;;;;;19.66;45.06;102649.91;5142599;27;20071;-37
2021/12/19 11:52:37;;;;;;;0.20;0.20;;;;;;;19.66;44.82;102653.50;5160536;27;20046;-37
2021/12/19 11:55:22;;;;;;;0.20;0.20;;;;;;;19.65;44.83;102654.59;5156893;27;20045;-36
2021/12/19 12:00:50;;;;;;;0.20;0.20;;;;;;;19.65;44.74;102640.78;5164846;27;20125;-36
2021/12/19 12:06:20;;;;;;;0.20;0.20;;;;;;;19.65;44.90;102637.19;5174142;27;20206;-35
2021/12/19 12:09:21;;;;;;;0.20;0.20;;;;;;;19.65;44.75;102638.03;5159552;27;20210;-34
2021/12/19 12:12:10;;;;;;;0.20;0.20;;;;;;;19.66;44.82;102647.97;5141577;27;20153;-36
2021/12/19 12:14:50;;;;;;;0.20;0.20;;;;;;;19.66;44.87;102634.16;5124543;27;20039;-35
2021/12/19 12:17:22;;;;;;;0.20;0.20;;;;;;;19.66;44.87;102642.47;5121260;27;20053;-35
2021/12/19 12:19:51;;;;;;;0.20;0.20;;;;;;;19.65;44.78;102638.03;5139754;27;20039;-35
2021/12/19 12:25:31;;;;;;;0.20;0.20;;;;;;;19.64;44.75;102622.50;5160840;27;20205;-35
2021/12/19 12:28:07;;;;;;;0.20;0.20;;;;;;;19.66;44.72;102612.06;5132763;27;20053;-36
2021/12/19 12:30:52;;;;;;;0.20;0.20;;;;;;;19.65;44.65;102606.78;5146078;27;20042;-37
2021/12/19 12:33:26;;;;;;;0.20;0.20;;;;;;;19.66;44.86;102603.75;5164903;27;20058;-36